Time;durP1;ratioP1;P1;durP2;ratioP2;P2;SDS_P1;SDS_P2;PMS_P1;PMS_P2;Temp;Humidity;BMP_temperature;BMP_pressure;BME280_temperature;BME280_humidity;BME280_pressure;Samples;Min_cycle;Max_cycle;Signal;HPM_P1;HPM_P2
2022/07/10 00:00:27;;;;;;;13.32;10.50;;;;;;;16.03;71.72;94726.88;5110195;28;20047;-74
2022/07/10 00:02:52;;;;;;;10.38;9.30;;;;;;;16.04;71.96;94718.03;5111196;28;20531;-73
2022/07/10 00:05:18;;;;;;;10.80;9.77;;;;;;;16.14;71.36;94724.94;5093142;28;20063;-73
2022/07/10 00:07:44;;;;;;;11.15;10.05;;;;;;;16.05;71.44;94706.59;5110068;28;20401;-73
2022/07/10 00:10:09;;;;;;;10.10;9.20;;;;;;;16.13;71.46;94718.03;5093186;28;20063;-73
2022/07/10 00:12:35;;;;;;;10.43;9.27;;;;;;;16.14;71.36;94717.88;5111413;28;20545;-73
2022/07/10 00:15:01;;;;;;;11.00;9.88;;;;;;;16.13;71.60;94721.50;5092988;28;20110;-73
2022/07/10 00:17:27;;;;;;;10.55;9.55;;;;;;;16.11;72.15;94725.25;5092919;28;20066;-73
2022/07/10 00:19:52;;;;;;;10.55;9.55;;;;;;;15.95;72.45;94700.66;5111290;28;20094;-73
2022/07/10 00:22:18;;;;;;;10.75;9.65;;;;;;;16.05;72.80;94708.38;5092934;28;20031;-73
2022/07/10 00:24:43;;;;;;;10.75;9.65;;;;;;;16.03;72.76;94703.28;5109835;28;20038;-73
2022/07/10 00:27:09;;;;;;;10.48;9.48;;;;;;;16.12;72.88;94704.13;5111051;28;20030;-73
2022/07/10 00:29:34;;;;;;;11.80;9.90;;;;;;;16.06;72.65;94708.22;5109796;28;20036;-74
2022/07/10 00:32:00;;;;;;;15.02;9.60;;;;;;;16.04;72.98;94702.31;5109551;28;20027;-73
2022/07/10 00:34:25;;;;;;;10.50;9.35;;;;;;;16.04;72.71;94698.88;5111264;28;20469;-73
2022/07/10 00:36:50;;;;;;;11.10;9.65;;;;;;;16.02;72.71;94700.84;5114942;28;20084;-73
2022/07/10 00:39:16;;;;;;;10.30;9.30;;;;;;;15.97;72.83;94693.47;5113526;28;20504;-73
2022/07/10 00:41:42;;;;;;;10.80;9.70;;;;;;;16.01;72.75;94693.97;5113627;28;20412;-73
2022/07/10 00:44:07;;;;;;;10.48;9.57;;;;;;;16.03;71.61;94692.81;5096484;28;20096;-73
2022/07/10 00:46:33;;;;;;;10.48;9.38;;;;;;;16.04;71.30;94699.69;5113537;28;20035;-73
2022/07/10 00:48:58;;;;;;;10.35;9.20;;;;;;;15.96;71.20;94683.97;5113395;28;20035;-73
2022/07/10 00:51:25;;;;;;;10.77;9.30;;;;;;;15.95;70.56;94687.56;5096451;28;20039;-74
2022/07/10 00:53:51;;;;;;;11.80;9.18;;;;;;;15.93;70.93;94684.28;5113322;28;20089;-73
2022/07/10 00:56:19;;;;;;;10.40;9.32;;;;;;;15.96;71.12;94691.00;5096300;28;20133;-74
2022/07/10 00:58:45;;;;;;;9.88;8.95;;;;;;;15.95;71.61;94697.25;5079676;28;20020;-73
2022/07/10 01:01:11;;;;;;;10.88;9.88;;;;;;;15.91;71.31;94681.03;5079429;28;20040;-73
2022/07/10 01:03:36;;;;;;;10.70;9.60;;;;;;;15.93;71.35;94686.09;5096229;28;20081;-73
2022/07/10 01:06:03;;;;;;;11.88;10.07;;;;;;;15.92;71.31;94690.53;5096108;28;20028;-73
2022/07/10 01:08:28;;;;;;;10.18;9.10;;;;;;;15.91;71.24;94683.66;5096019;28;20103;-74
2022/07/10 01:10:54;;;;;;;10.23;9.23;;;;;;;15.89;71.46;94679.56;5113182;28;20469;-73
2022/07/10 01:13:19;;;;;;;9.75;8.75;;;;;;;15.88;70.68;94686.59;5112961;28;20043;-73
2022/07/10 01:15:45;;;;;;;9.80;8.80;;;;;;;15.80;71.25;94678.72;5095882;28;20091;-73
2022/07/10 01:18:10;;;;;;;10.80;8.90;;;;;;;15.81;71.50;94682.97;5095996;28;20039;-73
2022/07/10 01:20:36;;;;;;;9.30;8.50;;;;;;;15.78;71.13;94684.13;5113129;28;20285;-73
2022/07/10 01:23:01;;;;;;;9.23;8.32;;;;;;;15.70;70.62;94670.19;5095860;28;20035;-73
2022/07/10 01:25:27;;;;;;;10.15;8.57;;;;;;;15.68;70.87;94675.59;5112898;28;20059;-73
2022/07/10 01:27:53;;;;;;;10.15;8.35;;;;;;;15.71;70.84;94675.28;5112688;28;20413;-74
2022/07/10 01:30:20;;;;;;;9.13;8.32;;;;;;;15.71;70.91;94671.81;5114250;28;20027;-73
2022/07/10 01:32:46;;;;;;;9.13;8.02;;;;;;;15.71;71.50;94666.59;5112519;28;20036;-73
2022/07/10 01:35:11;;;;;;;10.05;8.70;;;;;;;15.67;70.95;94662.63;5112718;28;20028;-73
2022/07/10 01:37:38;;;;;;;10.30;9.23;;;;;;;15.64;71.23;94661.97;5112663;28;20038;-73
2022/07/10 01:40:04;;;;;;;9.25;8.07;;;;;;;15.62;71.57;94658.69;5112491;28;20026;-73
2022/07/10 01:42:29;;;;;;;9.50;8.68;;;;;;;15.58;71.68;94660.00;5095541;28;20086;-74
2022/07/10 01:44:55;;;;;;;9.48;8.32;;;;;;;15.50;72.10;94651.31;5113919;28;20031;-73
2022/07/10 01:47:24;;;;;;;9.38;8.48;;;;;;;15.47;72.00;94649.84;5111686;28;20103;-73
2022/07/10 01:49:50;;;;;;;11.48;9.10;;;;;;;15.41;72.30;94647.88;5079082;28;20052;-73
2022/07/10 01:52:16;;;;;;;9.65;8.75;;;;;;;15.33;72.68;94653.91;5095188;28;20035;-73
2022/07/10 01:54:41;;;;;;;9.45;8.55;;;;;;;15.28;72.29;94635.25;5112289;28;20465;-73
2022/07/10 01:57:07;;;;;;;10.23;9.10;;;;;;;15.34;72.45;94646.88;5095215;28;20036;-73
2022/07/10 01:59:32;;;;;;;10.25;8.52;;;;;;;15.34;72.75;94645.06;5112194;28;20020;-73
2022/07/10 02:01:58;;;;;;;9.73;8.85;;;;;;;15.30;72.98;94635.91;5113391;28;20039;-73
2022/07/10 02:04:41;;;;;;;11.07;8.80;;;;;;;15.38;72.73;94640.34;5094948;28;20024;-73
2022/07/10 02:07:13;;;;;;;9.82;8.93;;;;;;;15.35;73.04;94643.25;5113287;28;20083;-73
2022/07/10 02:09:39;;;;;;;13.48;8.70;;;;;;;15.35;73.09;94645.88;5111850;28;20055;-73
2022/07/10 02:12:05;;;;;;;9.68;8.60;;;;;;;15.22;73.05;94638.50;5111795;28;20042;-73
2022/07/10 02:14:31;;;;;;;10.13;9.20;;;;;;;15.19;73.24;94644.06;5094835;28;20030;-73
2022/07/10 02:16:56;;;;;;;14.35;8.77;;;;;;;15.05;73.57;94655.13;5111823;28;20024;-73
2022/07/10 02:19:22;;;;;;;10.32;9.32;;;;;;;15.03;73.76;94647.44;5111697;28;20024;-73
2022/07/10 02:21:47;;;;;;;10.07;9.15;;;;;;;15.03;73.72;94639.59;5077767;28;20055;-73
2022/07/10 02:24:12;;;;;;;9.98;8.85;;;;;;;14.94;74.14;94635.31;5094699;28;20425;-73
2022/07/10 02:26:38;;;;;;;10.35;9.27;;;;;;;14.98;74.28;94644.47;5077735;28;20031;-73
2022/07/10 02:29:03;;;;;;;11.13;8.57;;;;;;;14.92;74.15;94643.31;5111358;28;20032;-73
2022/07/10 02:31:29;;;;;;;9.45;8.55;;;;;;;14.88;74.07;94634.16;5094547;28;20035;-73
2022/07/10 02:33:54;;;;;;;10.48;8.43;;;;;;;14.85;73.44;94646.69;5094405;28;20480;-73
2022/07/10 02:36:20;;;;;;;9.75;8.80;;;;;;;14.82;73.35;94639.16;5112698;28;20024;-73
2022/07/10 02:38:45;;;;;;;10.75;9.68;;;;;;;14.80;74.01;94641.97;5112544;28;20030;-73
2022/07/10 02:41:11;;;;;;;9.95;8.95;;;;;;;14.82;74.13;94647.84;5111278;28;20413;-73
2022/07/10 02:43:36;;;;;;;10.38;9.25;;;;;;;14.78;74.41;94646.50;5111243;28;20046;-73
2022/07/10 02:46:02;;;;;;;11.07;8.80;;;;;;;14.77;73.91;94636.22;5094196;28;20050;-73
2022/07/10 02:48:28;;;;;;;10.52;9.40;;;;;;;14.86;73.93;94649.16;5111215;28;20405;-73
2022/07/10 02:50:53;;;;;;;10.70;9.70;;;;;;;14.82;73.78;94652.25;5111012;28;20051;-73
2022/07/10 02:53:19;;;;;;;10.30;9.25;;;;;;;14.84;73.82;94652.91;5077164;28;20558;-73
2022/07/10 02:55:44;;;;;;;9.98;9.00;;;;;;;14.78;74.34;94646.50;5094174;28;20027;-73
2022/07/10 02:58:09;;;;;;;10.32;9.30;;;;;;;14.84;74.50;94655.53;5092967;28;20405;-73
2022/07/10 03:00:36;;;;;;;13.57;8.82;;;;;;;14.84;74.05;94664.19;5111077;28;20028;-73
2022/07/10 03:03:01;;;;;;;12.20;10.10;;;;;;;14.74;74.89;94663.50;5110853;28;20445;-73
2022/07/10 03:05:27;;;;;;;10.68;9.70;;;;;;;14.68;74.87;94659.72;5094032;28;20028;-73
2022/07/10 03:07:53;;;;;;;10.73;9.70;;;;;;;14.71;75.30;94655.97;5112046;28;20028;-73
2022/07/10 03:10:18;;;;;;;10.40;9.40;;;;;;;14.82;75.57;94660.94;5110896;28;20035;-73
2022/07/10 03:12:44;;;;;;;11.02;9.43;;;;;;;14.85;76.23;94659.78;5093660;28;20124;-73
2022/07/10 03:15:10;;;;;;;9.98;9.07;;;;;;;14.92;76.15;94671.25;5076863;28;20565;-73
2022/07/10 03:17:35;;;;;;;10.57;9.57;;;;;;;14.97;76.02;94666.38;5110669;28;20493;-73
2022/07/10 03:20:00;;;;;;;10.32;8.93;;;;;;;14.95;75.93;94653.44;5110676;28;20036;-73
2022/07/10 03:22:28;;;;;;;10.23;9.23;;;;;;;15.08;75.95;94668.72;5093560;28;20421;-73
2022/07/10 03:24:53;;;;;;;10.75;8.80;;;;;;;15.09;75.83;94672.13;5110570;28;20035;-73
2022/07/10 03:27:19;;;;;;;11.18;9.05;;;;;;;15.13;75.64;94670.88;5110523;28;20039;-73
2022/07/10 03:29:46;;;;;;;9.82;8.93;;;;;;;15.15;75.55;94671.50;5093551;28;20032;-73
2022/07/10 03:32:11;;;;;;;10.10;9.10;;;;;;;15.22;75.80;94671.72;5110602;28;20058;-73
2022/07/10 03:34:37;;;;;;;10.52;9.63;;;;;;;15.31;75.40;94668.13;5076532;28;20469;-73
2022/07/10 03:37:02;;;;;;;12.85;9.70;;;;;;;15.34;74.54;94670.41;5111484;28;20034;-73
2022/07/10 03:39:28;;;;;;;9.70;8.80;;;;;;;15.45;74.38;94672.75;5093276;28;20080;-73
2022/07/10 03:41:53;;;;;;;10.52;9.23;;;;;;;15.51;74.69;94660.81;5093340;28;20107;-73
2022/07/10 03:44:19;;;;;;;9.60;8.70;;;;;;;15.59;73.90;94663.44;5110266;28;20477;-73
2022/07/10 03:46:44;;;;;;;11.20;9.55;;;;;;;15.66;73.22;94659.22;5110286;28;20452;-73
2022/07/10 03:49:10;;;;;;;9.75;8.85;;;;;;;15.71;72.25;94661.34;5092813;28;20031;-73
2022/07/10 03:51:35;;;;;;;10.30;9.30;;;;;;;15.77;71.93;94660.72;5110151;28;20032;-73
2022/07/10 03:54:00;;;;;;;11.35;8.70;;;;;;;15.75;71.27;94654.81;5110053;28;20035;-73
2022/07/10 03:59:10;;;;;;;12.02;8.93;;;;;;;15.90;72.13;94661.03;5111338;28;20038;-73
2022/07/10 04:01:35;;;;;;;10.05;9.13;;;;;;;15.88;71.87;94642.06;5076280;28;20031;-73
2022/07/10 04:04:01;;;;;;;10.18;8.57;;;;;;;16.01;71.19;94652.03;5092922;28;20401;-73
2022/07/10 04:06:27;;;;;;;9.80;8.90;;;;;;;16.00;70.62;94643.38;5109958;28;20043;-73
2022/07/10 04:08:53;;;;;;;9.70;8.68;;;;;;;16.15;70.58;94643.50;5111907;28;20116;-73
2022/07/10 04:11:18;;;;;;;8.73;7.82;;;;;;;16.26;70.77;94645.78;5114125;28;20256;-73
2022/07/10 04:13:43;;;;;;;9.32;8.32;;;;;;;16.53;69.49;94651.66;5114215;28;20093;-73
2022/07/10 04:16:12;;;;;;;9.43;8.52;;;;;;;16.85;67.98;94642.91;5114090;28;20032;-73
2022/07/10 04:18:39;;;;;;;12.98;8.25;;;;;;;16.79;67.42;94646.22;5097462;28;20489;-73
2022/07/10 04:21:05;;;;;;;8.68;7.72;;;;;;;16.95;66.29;94643.53;5113985;28;20050;-73
2022/07/10 04:23:30;;;;;;;9.60;8.60;;;;;;;16.79;66.46;94638.34;5115123;28;20027;-73
2022/07/10 04:25:56;;;;;;;8.90;8.10;;;;;;;16.63;66.70;94635.72;5113912;28;20034;-73
2022/07/10 04:28:22;;;;;;;9.85;8.13;;;;;;;16.70;66.25;94615.72;5113967;28;20433;-73
2022/07/10 04:30:47;;;;;;;8.07;7.38;;;;;;;17.63;65.52;94631.53;5115454;28;20034;-73
2022/07/10 04:33:12;;;;;;;8.10;7.30;;;;;;;18.14;63.37;94635.44;5115081;28;20308;-73
2022/07/10 04:35:38;;;;;;;8.85;7.03;;;;;;;18.96;59.78;94635.44;5113639;28;20027;-73
2022/07/10 04:38:03;;;;;;;7.53;6.78;;;;;;;19.64;58.09;94630.78;5079773;28;20485;-73
2022/07/10 04:40:29;;;;;;;6.93;6.28;;;;;;;19.02;59.31;94624.19;5096731;28;20043;-73
2022/07/10 04:42:54;;;;;;;8.30;7.50;;;;;;;18.99;59.06;94627.19;5114837;28;20547;-73
2022/07/10 04:45:20;;;;;;;7.63;6.93;;;;;;;19.15;59.94;94640.13;5113697;28;20032;-73
2022/07/10 04:47:45;;;;;;;8.30;6.78;;;;;;;19.90;57.68;94632.06;5096501;28;20032;-71
2022/07/10 04:50:11;;;;;;;7.47;6.78;;;;;;;20.80;54.84;94623.41;5114549;28;20120;-72
2022/07/10 04:52:36;;;;;;;9.50;6.30;;;;;;;20.96;53.39;94631.03;5113480;28;20445;-71
2022/07/10 04:55:02;;;;;;;8.60;6.30;;;;;;;19.82;56.59;94633.00;5113432;28;20043;-71
2022/07/10 04:57:27;;;;;;;8.38;7.57;;;;;;;19.11;57.40;94625.72;5113411;28;20054;-71
2022/07/10 04:59:53;;;;;;;8.95;6.85;;;;;;;19.38;57.76;94631.28;5113377;28;20032;-71
2022/07/10 05:02:19;;;;;;;7.10;6.40;;;;;;;19.73;57.13;94626.22;5113324;28;20030;-72
2022/07/10 05:04:44;;;;;;;6.95;6.30;;;;;;;19.68;56.36;94624.16;5096286;28;20451;-71
2022/07/10 05:07:09;;;;;;;6.95;6.25;;;;;;;19.79;56.21;94622.84;5113207;28;20039;-73
2022/07/10 05:09:35;;;;;;;8.25;6.50;;;;;;;19.96;56.07;94626.84;5096130;28;20057;-71
2022/07/10 05:12:01;;;;;;;7.25;6.63;;;;;;;20.14;55.30;94623.75;5112900;28;20028;-71
2022/07/10 05:14:26;;;;;;;10.48;6.45;;;;;;;20.02;54.96;94612.09;5112932;28;20066;-71
2022/07/10 05:16:52;;;;;;;6.30;5.63;;;;;;;20.36;55.30;94637.72;5114172;28;20478;-71
2022/07/10 05:19:17;;;;;;;6.78;6.18;;;;;;;20.37;53.70;94623.53;5112904;28;20089;-74
2022/07/10 05:21:43;;;;;;;6.28;5.45;;;;;;;20.43;54.94;94622.75;5094739;28;20063;-73
2022/07/10 05:24:08;;;;;;;7.53;6.28;;;;;;;20.36;55.10;94623.72;5112700;28;20031;-73
2022/07/10 05:26:35;;;;;;;8.43;6.20;;;;;;;20.50;54.19;94612.25;5113085;28;20039;-73
2022/07/10 05:29:01;;;;;;;7.43;5.75;;;;;;;20.75;53.70;94624.03;5113912;28;20485;-73
2022/07/10 05:31:26;;;;;;;6.97;5.78;;;;;;;20.90;53.54;94617.81;5095686;28;20089;-73
2022/07/10 05:33:52;;;;;;;7.47;5.82;;;;;;;20.78;53.93;94608.78;5112642;28;20465;-71
2022/07/10 05:36:17;;;;;;;6.00;5.45;;;;;;;21.00;52.88;94622.72;5095581;28;20027;-71
2022/07/10 05:38:43;;;;;;;6.72;5.78;;;;;;;21.06;51.95;94622.75;5095584;28;20081;-74
2022/07/10 05:41:09;;;;;;;6.22;5.53;;;;;;;20.92;52.32;94621.88;5114003;28;20074;-73
2022/07/10 05:43:34;;;;;;;6.20;5.55;;;;;;;20.98;52.14;94621.09;5112666;28;20479;-74
2022/07/10 05:46:00;;;;;;;5.85;5.30;;;;;;;21.09;51.95;94626.81;5113618;28;20035;-73
2022/07/10 05:48:25;;;;;;;6.78;5.90;;;;;;;20.87;51.65;94634.84;5112383;28;20027;-74
2022/07/10 05:50:51;;;;;;;5.85;5.32;;;;;;;20.77;52.49;94631.72;5112335;28;20055;-73
2022/07/10 05:53:19;;;;;;;6.40;5.80;;;;;;;20.90;52.01;94634.44;5112212;28;20031;-73
2022/07/10 05:55:46;;;;;;;6.78;6.18;;;;;;;20.96;52.05;94627.56;5112448;28;20031;-74
2022/07/10 05:58:12;;;;;;;10.57;6.32;;;;;;;21.00;52.41;94638.56;5112264;28;20027;-73
2022/07/10 06:00:37;;;;;;;6.50;5.38;;;;;;;21.02;52.32;94629.44;5112274;28;20519;-73
2022/07/10 06:03:03;;;;;;;5.82;5.30;;;;;;;21.11;53.04;94630.06;5112124;28;20049;-74
2022/07/10 06:05:28;;;;;;;6.32;5.72;;;;;;;21.21;52.94;94633.19;5112261;28;20108;-74
2022/07/10 06:07:54;;;;;;;9.88;5.65;;;;;;;21.32;52.66;94626.53;5113220;28;20027;-73
2022/07/10 06:10:19;;;;;;;6.43;5.60;;;;;;;21.32;51.10;94626.53;5112097;28;20040;-74
2022/07/10 06:12:45;;;;;;;6.03;5.18;;;;;;;21.30;50.88;94618.78;5111893;28;20032;-73
2022/07/10 06:15:10;;;;;;;5.88;5.05;;;;;;;21.45;51.67;94631.06;5111806;28;20160;-73
2022/07/10 06:17:36;;;;;;;7.43;5.38;;;;;;;21.44;51.44;94624.16;5094919;28;20036;-74
2022/07/10 06:20:02;;;;;;;5.95;5.35;;;;;;;21.57;50.85;94625.00;5094819;28;20027;-74
2022/07/10 06:22:30;;;;;;;5.43;4.80;;;;;;;21.72;49.49;94627.47;5094792;28;20039;-73
2022/07/10 06:24:59;;;;;;;7.40;5.10;;;;;;;21.69;49.98;94627.88;5113094;28;20035;-73
2022/07/10 06:27:25;;;;;;;5.65;5.15;;;;;;;21.72;51.11;94616.09;5111755;28;20412;-74
2022/07/10 06:29:51;;;;;;;5.70;5.20;;;;;;;21.95;50.83;94615.72;5094681;28;20077;-74
2022/07/10 06:32:16;;;;;;;5.70;4.90;;;;;;;21.98;49.49;94612.66;5112485;28;20035;-73
2022/07/10 06:34:42;;;;;;;5.50;5.00;;;;;;;22.08;49.23;94611.25;5094563;28;20035;-74
2022/07/10 06:37:07;;;;;;;6.70;5.10;;;;;;;22.12;49.20;94611.66;5094544;28;20024;-74
2022/07/10 06:39:36;;;;;;;6.90;5.28;;;;;;;22.07;48.34;94616.75;5094363;28;20027;-73
2022/07/10 06:42:08;;;;;;;5.53;4.90;;;;;;;21.93;49.20;94612.47;5095116;28;20104;-74
2022/07/10 06:44:33;;;;;;;8.40;4.80;;;;;;;21.99;48.94;94619.59;5094675;28;20454;-73
2022/07/10 06:49:42;;;;;;;5.63;4.95;;;;;;;22.02;49.08;94611.25;5096931;28;20523;-73
2022/07/10 06:52:08;;;;;;;5.95;5.25;;;;;;;22.10;49.75;94600.47;5094118;28;20031;-74
2022/07/10 06:54:33;;;;;;;5.22;4.80;;;;;;;22.14;47.93;94612.25;5094202;28;20024;-72
2022/07/10 06:56:59;;;;;;;6.05;4.68;;;;;;;22.24;48.47;94598.69;5112319;28;20450;-72
2022/07/10 06:59:24;;;;;;;5.03;4.60;;;;;;;22.37;47.41;94605.78;5111009;28;20469;-72
2022/07/10 07:01:50;;;;;;;4.93;4.30;;;;;;;22.49;48.43;94598.84;5112159;28;20031;-71
2022/07/10 07:04:16;;;;;;;5.10;4.55;;;;;;;22.64;47.18;94607.38;5110780;28;20138;-72
2022/07/10 07:06:41;;;;;;;5.05;4.43;;;;;;;22.69;47.86;94599.63;5110895;28;20055;-71
2022/07/10 07:09:06;;;;;;;5.50;4.30;;;;;;;22.87;47.50;94604.28;5110749;28;20092;-72
2022/07/10 07:11:32;;;;;;;4.90;4.00;;;;;;;22.95;46.38;94605.88;5110732;28;20031;-72
2022/07/10 07:13:57;;;;;;;4.60;4.20;;;;;;;22.92;46.40;94601.00;5110626;28;20107;-72
2022/07/10 07:16:37;;;;;;;6.13;4.03;;;;;;;22.77;45.89;94593.31;5111917;28;20024;-72
2022/07/10 07:19:04;;;;;;;4.95;3.67;;;;;;;22.69;45.68;94599.63;5110673;28;20527;-72
2022/07/10 07:24:14;;;;;;;5.30;4.13;;;;;;;22.61;45.58;94612.28;5111012;28;20534;-72
2022/07/10 07:26:39;;;;;;;4.95;4.20;;;;;;;;;;5111756;28;20040;-71
2022/07/10 07:29:05;;;;;;;8.83;4.20;;;;;;;22.62;47.63;94605.94;5111702;28;20081;-72
2022/07/10 07:31:30;;;;;;;5.93;4.60;;;;;;;22.69;47.42;94610.22;5076562;28;20304;-72
2022/07/10 07:33:55;;;;;;;5.28;4.20;;;;;;;22.80;46.94;94607.97;5110287;28;20481;-72
2022/07/10 07:36:21;;;;;;;6.10;4.07;;;;;;;22.95;46.10;94600.56;5076554;28;20106;-72
2022/07/10 07:38:46;;;;;;;5.85;4.32;;;;;;;22.90;46.15;94603.03;5111574;28;20027;-71
2022/07/10 07:41:12;;;;;;;8.93;4.47;;;;;;;22.92;46.34;94599.16;5111503;28;20031;-72
2022/07/10 07:43:37;;;;;;;5.70;4.28;;;;;;;22.94;45.50;94598.97;5110891;28;20027;-72
2022/07/10 07:46:03;;;;;;;6.05;4.13;;;;;;;22.90;46.75;94603.88;5093123;28;20030;-72
2022/07/10 07:48:28;;;;;;;5.88;4.75;;;;;;;22.90;45.90;94603.88;5110302;28;20107;-72
2022/07/10 07:50:54;;;;;;;4.90;4.40;;;;;;;22.91;47.18;94599.38;5110092;28;20054;-72
2022/07/10 07:53:19;;;;;;;6.45;4.10;;;;;;;22.99;46.45;94585.94;5110169;28;20036;-72
2022/07/10 07:55:44;;;;;;;5.55;4.82;;;;;;;23.12;46.62;94590.34;5111236;28;20036;-72
2022/07/10 07:58:10;;;;;;;5.03;4.30;;;;;;;23.22;46.22;94600.53;5076260;28;20084;-72
2022/07/10 08:00:35;;;;;;;8.25;4.65;;;;;;;23.35;46.27;94601.28;5110201;28;20421;-72
2022/07/10 08:03:01;;;;;;;4.63;4.10;;;;;;;23.45;47.00;94582.25;5110095;28;20489;-72
2022/07/10 08:05:26;;;;;;;7.72;3.95;;;;;;;23.56;44.68;94586.88;5111629;28;20046;-72
2022/07/10 08:07:54;;;;;;;4.53;3.90;;;;;;;23.64;44.84;94589.28;5093213;28;20027;-74
2022/07/10 08:10:22;;;;;;;4.43;3.70;;;;;;;23.71;44.27;94589.28;5092985;28;20040;-74
2022/07/10 08:12:48;;;;;;;6.90;3.65;;;;;;;23.83;44.65;94581.47;5093218;28;20028;-74
2022/07/10 08:15:15;;;;;;;3.88;3.58;;;;;;;23.85;42.97;94579.41;5075988;28;20489;-74
2022/07/10 08:17:40;;;;;;;7.00;3.88;;;;;;;23.99;44.49;94583.59;5093057;28;20043;-73
2022/07/10 08:20:07;;;;;;;5.13;3.63;;;;;;;24.14;42.64;94585.09;5110090;28;20320;-73
2022/07/10 08:22:33;;;;;;;4.55;3.72;;;;;;;24.13;42.46;94578.19;5109866;28;20489;-74
2022/07/10 08:24:58;;;;;;;5.18;3.80;;;;;;;24.23;43.49;94586.47;5109727;28;20039;-73
2022/07/10 08:27:24;;;;;;;3.97;3.58;;;;;;;24.28;40.56;94589.28;5109832;28;20023;-74
2022/07/10 08:29:49;;;;;;;4.75;3.72;;;;;;;24.19;42.87;94579.97;5075948;28;20130;-73
2022/07/10 08:32:15;;;;;;;5.70;3.55;;;;;;;24.21;41.20;94585.84;5093071;28;20115;-73
2022/07/10 08:34:40;;;;;;;3.55;3.20;;;;;;;24.14;41.21;94587.75;5111142;28;20032;-73
2022/07/10 08:37:06;;;;;;;5.45;3.30;;;;;;;24.13;42.16;94581.66;5110984;28;20417;-73
2022/07/10 08:39:32;;;;;;;5.22;3.85;;;;;;;24.23;43.42;94578.50;5109788;28;20039;-73
2022/07/10 08:41:58;;;;;;;4.72;3.72;;;;;;;24.28;41.64;94583.97;5092886;28;20119;-73
2022/07/10 08:44:23;;;;;;;4.20;3.80;;;;;;;24.36;42.14;94588.19;5092690;28;20155;-73
2022/07/10 08:46:49;;;;;;;7.45;3.97;;;;;;;24.37;41.99;94582.66;5109650;28;20024;-73
2022/07/10 08:49:14;;;;;;;5.63;3.60;;;;;;;24.37;40.86;94584.50;5109427;28;20085;-73
2022/07/10 08:52:01;;;;;;;6.40;4.03;;;;;;;24.40;42.38;94584.88;5092624;28;20027;-73
2022/07/10 08:54:30;;;;;;;6.38;3.50;;;;;;;24.41;41.80;94575.09;5110848;28;20046;-73
2022/07/10 08:56:57;;;;;;;5.80;4.05;;;;;;;24.37;42.65;94587.16;5096364;28;20024;-73
2022/07/10 08:59:23;;;;;;;4.68;3.40;;;;;;;24.45;41.14;94573.63;5114676;28;20043;-74
2022/07/10 09:01:49;;;;;;;3.88;3.47;;;;;;;24.49;40.89;94575.66;5096425;28;20028;-73
2022/07/10 09:04:21;;;;;;;5.82;3.25;;;;;;;24.54;40.60;94572.31;5113259;28;20119;-73
2022/07/10 09:06:46;;;;;;;5.30;3.35;;;;;;;24.68;40.61;94568.53;5113277;28;20023;-73
2022/07/10 09:09:12;;;;;;;5.05;3.90;;;;;;;24.82;41.01;94571.81;5096105;28;20034;-73
2022/07/10 09:11:42;;;;;;;7.40;3.53;;;;;;;24.91;40.95;94567.06;5114309;28;20023;-73
2022/07/10 09:14:08;;;;;;;4.28;3.10;;;;;;;25.06;39.94;94571.97;5096267;28;20042;-73
2022/07/10 09:16:35;;;;;;;4.03;3.08;;;;;;;25.03;39.37;94559.16;5095990;28;20038;-74
2022/07/10 09:19:33;;;;;;;5.70;3.38;;;;;;;25.07;38.32;94569.09;5112908;28;20031;-73
2022/07/10 09:22:01;;;;;;;4.85;3.17;;;;;;;24.93;38.76;94570.28;5079204;28;20035;-74
2022/07/10 09:24:27;;;;;;;4.78;3.40;;;;;;;24.85;38.53;94566.09;5112852;28;20041;-73
2022/07/10 09:27:03;;;;;;;5.85;3.63;;;;;;;24.78;39.68;94562.69;5096162;28;20023;-74
2022/07/10 09:29:31;;;;;;;6.28;3.63;;;;;;;24.86;38.14;94565.03;5096592;28;20040;-73
2022/07/10 09:31:58;;;;;;;3.95;3.05;;;;;;;24.91;38.46;94557.22;5096217;28;20204;-73
2022/07/10 09:34:43;;;;;;;3.83;3.42;;;;;;;25.06;39.17;94562.16;5114004;28;20408;-73
2022/07/10 09:37:18;;;;;;;4.38;3.10;;;;;;;25.05;37.77;94557.09;5112674;28;20564;-74
2022/07/10 09:40:05;;;;;;;5.53;3.38;;;;;;;25.05;37.73;94557.88;5112652;28;20041;-73
2022/07/10 09:42:38;;;;;;;4.63;3.05;;;;;;;25.05;38.65;94547.25;5112642;28;20111;-73
2022/07/10 09:45:10;;;;;;;5.00;3.58;;;;;;;25.12;38.95;94558.59;5112587;28;20553;-74
2022/07/10 09:47:35;;;;;;;5.90;3.30;;;;;;;25.15;37.90;94552.88;5112375;28;20512;-75
2022/07/10 09:50:01;;;;;;;5.63;3.50;;;;;;;25.30;39.79;94555.16;5112149;28;20044;-73
2022/07/10 09:52:26;;;;;;;5.47;3.45;;;;;;;25.44;39.68;94553.13;5113563;28;20455;-73
2022/07/10 09:54:52;;;;;;;5.18;3.30;;;;;;;25.50;38.48;94538.94;5095319;28;20027;-73
2022/07/10 09:57:17;;;;;;;3.45;3.13;;;;;;;25.59;39.26;94536.75;5078353;28;20023;-74
2022/07/10 09:59:43;;;;;;;4.32;3.50;;;;;;;25.74;38.32;94534.50;5095247;28;20088;-74
2022/07/10 10:02:08;;;;;;;5.25;3.28;;;;;;;25.59;35.96;94532.25;5095204;28;20031;-74
2022/07/10 10:04:34;;;;;;;4.05;3.45;;;;;;;25.71;36.78;94539.44;5095139;28;20043;-73
2022/07/10 10:07:02;;;;;;;6.93;3.15;;;;;;;25.76;37.94;94536.91;5094510;28;20500;-73
2022/07/10 10:09:46;;;;;;;4.68;3.03;;;;;;;25.87;37.76;94544.13;5095434;28;20484;-73
2022/07/10 10:12:27;;;;;;;3.85;3.45;;;;;;;25.76;37.22;94540.38;5095062;28;20032;-73
2022/07/10 10:14:52;;;;;;;8.38;4.22;;;;;;;25.84;37.85;94529.44;5111954;28;20035;-73
2022/07/10 10:17:18;;;;;;;4.88;3.30;;;;;;;25.90;38.01;94516.28;5094810;28;20023;-73
2022/07/10 10:22:27;;;;;;;3.60;2.90;;;;;;;26.06;38.24;94531.56;5097812;28;20565;-73
2022/07/10 10:24:53;;;;;;;3.13;2.67;;;;;;;25.98;37.09;94523.91;5113142;28;20032;-73
2022/07/10 10:27:18;;;;;;;4.70;3.03;;;;;;;25.89;38.20;94520.78;5077766;28;20488;-73
2022/07/10 10:29:44;;;;;;;5.35;3.28;;;;;;;25.90;37.00;94516.28;5094632;28;20028;-73
2022/07/10 10:32:10;;;;;;;5.00;3.03;;;;;;;25.87;38.11;94512.22;5113050;28;20035;-74
2022/07/10 10:34:42;;;;;;;5.40;3.38;;;;;;;25.85;37.39;94507.16;5094571;28;20489;-73
2022/07/10 10:37:27;;;;;;;5.93;3.05;;;;;;;25.81;37.60;94508.59;5094432;28;20454;-74
2022/07/10 10:39:56;;;;;;;5.28;3.10;;;;;;;25.73;38.07;94500.94;5111068;28;20032;-75
2022/07/10 10:42:37;;;;;;;3.50;3.00;;;;;;;25.63;38.98;94516.63;5094308;28;20035;-72
2022/07/10 10:45:35;;;;;;;4.85;2.90;;;;;;;25.36;38.34;94508.25;5112739;28;20511;-73
2022/07/10 10:48:01;;;;;;;5.95;3.03;;;;;;;25.29;38.22;94513.63;5095719;28;20481;-73
2022/07/10 10:50:45;;;;;;;4.00;2.70;;;;;;;25.43;39.79;94511.63;5111060;28;20105;-73
2022/07/10 10:53:15;;;;;;;5.55;3.30;;;;;;;25.44;37.84;94509.78;5095260;28;20023;-73
2022/07/10 10:55:59;;;;;;;3.47;2.92;;;;;;;25.50;38.67;94520.31;5110991;28;20042;-73
2022/07/10 10:58:25;;;;;;;4.22;2.83;;;;;;;25.45;37.89;94519.38;5111255;28;20045;-72
2022/07/10 11:00:50;;;;;;;3.50;2.95;;;;;;;25.41;40.29;94514.50;5093878;28;20268;-73
2022/07/10 11:03:20;;;;;;;6.50;2.75;;;;;;;25.40;40.40;94518.19;5094067;28;20053;-73
2022/07/10 11:05:47;;;;;;;4.22;2.88;;;;;;;25.44;39.69;94513.25;5077110;28;20455;-73
2022/07/10 11:08:12;;;;;;;3.13;2.47;;;;;;;25.34;38.20;94508.47;5094422;28;20038;-73
2022/07/10 11:10:44;;;;;;;5.63;2.60;;;;;;;25.33;38.92;94512.16;5094030;28;20024;-73
2022/07/10 11:13:16;;;;;;;4.07;2.55;;;;;;;25.32;39.18;94510.53;5093949;28;20111;-73
2022/07/10 11:15:42;;;;;;;4.82;2.70;;;;;;;25.31;38.68;94508.91;5110900;28;20040;-73
2022/07/10 11:18:12;;;;;;;4.40;2.38;;;;;;;25.28;38.01;94520.00;5110300;28;20034;-74
2022/07/10 11:20:39;;;;;;;3.08;2.35;;;;;;;25.33;37.91;94517.50;5110567;28;20066;-73
2022/07/10 11:23:17;;;;;;;3.78;2.70;;;;;;;25.36;38.67;94511.72;5093754;28;20027;-73
2022/07/10 11:26:20;;;;;;;4.78;2.70;;;;;;;25.44;38.84;94512.44;5093712;28;20028;-73
2022/07/10 11:28:48;;;;;;;4.53;2.70;;;;;;;25.47;37.55;94512.00;5100304;28;20501;-73
2022/07/10 11:31:14;;;;;;;3.67;2.67;;;;;;;25.33;38.16;94514.03;5110432;28;20024;-73
2022/07/10 11:33:45;;;;;;;4.25;2.72;;;;;;;25.39;38.59;94508.59;5110403;28;20421;-73
2022/07/10 11:36:14;;;;;;;4.05;2.55;;;;;;;25.40;37.63;94496.91;5110420;28;20140;-73
2022/07/10 11:38:41;;;;;;;5.15;2.70;;;;;;;25.46;38.21;94499.72;5110322;28;20023;-73
2022/07/10 11:41:17;;;;;;;3.10;2.60;;;;;;;25.53;38.65;94485.28;5093353;28;20032;-73